Nearby METAR Reports

 

KHOT - Hot Springs, Arkansas, USA
Distance from station: W 8mi, 14km
Updated: 09/20/2020 12:53pm
Clear
Clear
 Wind from ENE
Wind: ENE 9 mph , 15 km/h
Temperature: 79°F , 26°C
Dew Point: 59°F , 15°C
Humidity: 51%
Barometer: 30.21 inHg , 1023 hPa
Clouds: Clear
Visibility: 10 miles , 16 km
2020/09/20 17:53 KHOT 201753Z AUTO 07008KT 10SM CLR 26/15 A3021 RMK AO2 SLP226 T02610150
KMWT - Mount Ida, Arkansas, USA
Distance from station: W 36mi, 58km
Updated: 09/20/2020 12:53pm
Clear
Clear
 Wind from varies
Wind: varies 7 mph , 11 km/h
Temperature: 75°F , 24°C
Dew Point: 61°F , 16°C
Humidity: 61%
Barometer: 30.20 inHg , 1022.7 hPa
Clouds: Clear
Visibility: 10 miles , 16 km
2020/09/20 17:53 KMWT 201753Z AUTO VRB06KT 10SM CLR 24/16 A3020 RMK AO2 SLP220 6//// T02440156 10250 20100 $
 
KLIT - Little Rock, Arkansas, USA
Distance from station: ENE 45mi, 73km
Updated: 09/20/2020 12:53pm
Few Clouds
Few Clouds
 Wind from E
Wind: E 9 mph , 15 km/h
Temperature: 79°F , 26°C
Dew Point: 59°F , 15°C
Humidity: 51%
Barometer: 30.23 inHg , 1023.7 hPa
Clouds: Few Clouds
Visibility: 10 miles , 16 km
Cloud details: Few Clouds 3500 ft
2020/09/20 17:53 KLIT 201753Z 08008KT 10SM FEW035 26/15 A3023 RMK AO2 SLP236 T02560150 10256 20139 58009
KLRF - Little Rock Afb, Arkansas, USA
Distance from station: NE 56mi, 89km
Updated: 09/20/2020 12:56pm
Clear
Clear
 Wind from NE
Wind: NE 3 mph , 6 km/h
Temperature: 79°F , 26°C
Dew Point: 57°F , 14°C
Humidity: 48%
Barometer: 30.23 inHg , 1023.7 hPa
Clouds: Clear
Visibility: 10 miles , 16 km
2020/09/20 17:56 KLRF 201756Z AUTO 05003KT 10SM CLR 26/14 A3023 RMK AO2 SLP238 T02550143 10257 20134 57010